createdAt,value
2018-04-30T00:01:03.446Z,978.30
2018-04-30T00:02:09.795Z,978.36
2018-04-30T00:03:16.170Z,978.39
2018-04-30T00:04:22.079Z,978.35
2018-04-30T00:05:28.985Z,978.43
2018-04-30T00:06:35.351Z,978.50
2018-04-30T00:07:41.724Z,978.60
2018-04-30T00:08:47.621Z,978.71
2018-04-30T00:09:54.510Z,978.69
2018-04-30T00:11:00.923Z,978.64
2018-04-30T00:12:06.803Z,978.72
2018-04-30T00:13:13.682Z,978.77
2018-04-30T00:14:19.573Z,978.70
2018-04-30T00:15:26.486Z,978.70
2018-04-30T00:16:32.851Z,978.65
2018-04-30T00:17:39.250Z,978.64
2018-04-30T00:18:45.650Z,978.64
2018-04-30T00:19:51.549Z,978.69
2018-04-30T00:20:58.480Z,978.71
2018-04-30T00:22:04.880Z,978.68
2018-04-30T00:23:11.226Z,978.67
2018-04-30T00:24:17.629Z,978.66
2018-04-30T00:25:24.069Z,978.61
2018-04-30T00:26:30.438Z,978.58
2018-04-30T00:27:36.840Z,978.61
2018-04-30T00:28:43.251Z,978.58
2018-04-30T00:29:49.641Z,978.60
2018-04-30T00:30:56.066Z,978.61
2018-04-30T00:32:02.449Z,978.65
2018-04-30T00:33:08.854Z,978.70
2018-04-30T00:34:14.764Z,978.76
2018-04-30T00:35:21.210Z,978.75
2018-04-30T00:36:28.077Z,978.72
2018-04-30T00:37:34.480Z,978.75
2018-04-30T00:38:40.906Z,978.75
2018-04-30T00:39:47.301Z,978.70
2018-04-30T00:40:53.743Z,978.79
2018-04-30T00:41:59.629Z,978.87
2018-04-30T00:43:06.530Z,978.92
2018-04-30T00:44:12.947Z,979.00
2018-04-30T00:45:18.890Z,978.98
2018-04-30T00:46:25.778Z,978.91
2018-04-30T00:47:32.177Z,978.94
2018-04-30T00:48:38.590Z,978.94
2018-04-30T00:49:44.516Z,978.93
2018-04-30T00:50:51.503Z,978.99
2018-04-30T00:51:57.344Z,978.92
2018-04-30T00:53:04.266Z,978.99
2018-04-30T00:54:10.176Z,979.00
2018-04-30T00:55:17.099Z,979.06
2018-04-30T00:56:23.485Z,979.10
2018-04-30T00:57:29.912Z,979.12
2018-04-30T00:58:35.846Z,979.12
2018-04-30T00:59:42.257Z,979.08
2018-04-30T01:00:48.697Z,979.06
2018-04-30T01:01:55.598Z,979.13
2018-04-30T01:03:01.478Z,979.08
2018-04-30T01:04:08.890Z,979.02
2018-04-30T01:05:14.817Z,979.00
2018-04-30T01:06:21.203Z,979.08
2018-04-30T01:07:27.613Z,979.11
2018-04-30T01:08:34.016Z,979.15
2018-04-30T01:09:40.435Z,979.19
2018-04-30T01:10:46.856Z,979.22
2018-04-30T01:11:53.250Z,979.20
2018-04-30T01:12:59.650Z,979.22
2018-04-30T01:14:06.040Z,979.21
2018-04-30T01:15:12.473Z,979.27
2018-04-30T01:16:18.360Z,979.41
2018-04-30T01:17:25.266Z,979.49
2018-04-30T01:18:31.159Z,979.42
2018-04-30T01:19:38.045Z,979.43
2018-04-30T01:20:44.473Z,979.45
2018-04-30T01:21:50.347Z,979.55
2018-04-30T01:22:57.256Z,979.60
2018-04-30T01:24:03.644Z,979.59
2018-04-30T01:25:09.572Z,979.57
2018-04-30T01:26:16.462Z,979.54
2018-04-30T01:27:22.817Z,979.58
2018-04-30T01:28:29.227Z,979.64
2018-04-30T01:29:35.117Z,979.64
2018-04-30T01:30:42.014Z,979.68
2018-04-30T01:31:48.380Z,979.73
2018-04-30T01:32:54.769Z,979.76
2018-04-30T01:34:01.168Z,979.77
2018-04-30T01:35:07.565Z,979.81
2018-04-30T01:36:13.964Z,979.82
2018-04-30T01:37:19.834Z,979.83
2018-04-30T01:38:26.719Z,979.93
2018-04-30T01:39:33.105Z,979.95
2018-04-30T01:40:39.009Z,979.97
2018-04-30T01:41:45.853Z,980.00
2018-04-30T01:42:52.239Z,979.97
2018-04-30T01:43:59.619Z,980.06
2018-04-30T01:45:04.514Z,979.93
2018-04-30T01:46:11.417Z,979.94
2018-04-30T01:47:17.764Z,979.91
2018-04-30T01:48:24.157Z,979.94
2018-04-30T01:49:30.516Z,979.95
2018-04-30T01:50:36.458Z,980.01
2018-04-30T01:51:43.272Z,980.01
2018-04-30T01:52:49.650Z,980.09
2018-04-30T01:53:56.015Z,980.14
2018-04-30T01:55:02.430Z,980.16
2018-04-30T01:56:08.404Z,980.22
2018-04-30T01:57:15.172Z,980.23
2018-04-30T01:58:21.526Z,980.30
2018-04-30T01:59:27.901Z,980.26
2018-04-30T02:00:34.291Z,980.28
2018-04-30T02:01:40.158Z,980.28
2018-04-30T02:02:47.022Z,980.33
2018-04-30T02:03:53.425Z,980.31
2018-04-30T02:04:59.769Z,980.41
2018-04-30T02:06:06.165Z,980.48
2018-04-30T02:07:12.518Z,980.54
2018-04-30T02:08:18.906Z,980.53
2018-04-30T02:09:25.298Z,980.62
2018-04-30T02:10:31.649Z,980.68
2018-04-30T02:11:37.512Z,980.75
2018-04-30T02:12:43.889Z,980.79
2018-04-30T02:13:50.751Z,980.78
2018-04-30T02:14:56.640Z,980.83
2018-04-30T02:16:03.528Z,980.83
2018-04-30T02:17:09.367Z,980.78
2018-04-30T02:18:16.243Z,980.79
2018-04-30T02:19:22.589Z,980.76
2018-04-30T02:20:28.985Z,980.72
2018-04-30T02:21:35.346Z,980.73
2018-04-30T02:22:41.224Z,980.67
2018-04-30T02:23:47.588Z,980.68
2018-04-30T02:24:53.970Z,980.69
2018-04-30T02:26:00.341Z,980.70
2018-04-30T02:27:06.694Z,980.71
2018-04-30T02:28:13.546Z,980.74
2018-04-30T02:29:19.912Z,980.80
2018-04-30T02:30:26.401Z,980.84
2018-04-30T02:31:32.683Z,980.87
2018-04-30T02:32:38.541Z,980.90
2018-04-30T02:33:45.428Z,980.93
2018-04-30T02:34:51.761Z,980.90
2018-04-30T02:35:58.149Z,980.96
2018-04-30T02:37:04.505Z,981.04
2018-04-30T02:38:10.872Z,981.02
2018-04-30T02:39:17.248Z,980.99
2018-04-30T02:40:23.627Z,981.01
2018-04-30T02:41:30.021Z,981.04
2018-04-30T02:42:36.378Z,981.02
2018-04-30T02:43:42.737Z,981.06
2018-04-30T02:44:49.112Z,981.12
2018-04-30T02:45:55.507Z,981.11
2018-04-30T02:47:01.367Z,981.17
2018-04-30T02:48:08.232Z,981.21
2018-04-30T02:49:14.601Z,981.27
2018-04-30T02:50:20.977Z,981.21
2018-04-30T02:51:26.899Z,981.30
2018-04-30T02:52:33.780Z,981.38
2018-04-30T02:53:40.120Z,981.32
2018-04-30T02:54:46.511Z,981.36
2018-04-30T02:55:52.372Z,981.34
2018-04-30T02:56:58.736Z,981.45
2018-04-30T02:58:05.589Z,981.53
2018-04-30T02:59:11.982Z,981.47
2018-04-30T03:00:18.382Z,981.52
2018-04-30T03:01:24.228Z,981.47
2018-04-30T03:02:31.092Z,981.42
2018-04-30T03:03:37.454Z,981.49
2018-04-30T03:04:43.821Z,981.47
2018-04-30T03:05:50.207Z,981.45
2018-04-30T03:06:56.083Z,981.50
2018-04-30T03:08:02.935Z,981.59
2018-04-30T03:09:09.310Z,981.48
2018-04-30T03:10:15.683Z,981.54
2018-04-30T03:11:22.073Z,981.57
2018-04-30T03:12:28.418Z,981.56
2018-04-30T03:13:35.307Z,981.64
2018-04-30T03:14:41.183Z,981.60
2018-04-30T03:15:47.576Z,981.65
2018-04-30T03:16:53.912Z,981.62
2018-04-30T03:18:00.276Z,981.62
2018-04-30T03:19:06.644Z,981.65
2018-04-30T03:20:12.522Z,981.82
2018-04-30T03:21:19.405Z,981.61
2018-04-30T03:22:25.756Z,981.63
2018-04-30T03:23:32.133Z,981.71
2018-04-30T03:24:38.492Z,981.72
2018-04-30T03:25:44.881Z,981.72
2018-04-30T03:26:51.248Z,981.77
2018-04-30T03:27:57.599Z,981.85
2018-04-30T03:29:03.969Z,981.85
2018-04-30T03:30:09.848Z,981.74
2018-04-30T03:31:17.720Z,981.71
2018-04-30T03:32:23.071Z,981.71
2018-04-30T03:33:29.446Z,981.79
2018-04-30T03:34:35.810Z,981.80
2018-04-30T03:35:41.684Z,981.79
2018-04-30T03:36:48.580Z,981.80
2018-04-30T03:37:54.918Z,981.95
2018-04-30T03:39:01.296Z,981.87
2018-04-30T03:40:07.658Z,981.89
2018-04-30T03:41:15.049Z,981.94
2018-04-30T03:42:20.395Z,981.94
2018-04-30T03:43:26.744Z,981.91
2018-04-30T03:44:33.110Z,981.96
2018-04-30T03:45:38.981Z,981.96
2018-04-30T03:46:45.858Z,981.94
2018-04-30T03:47:52.196Z,981.99
2018-04-30T03:48:58.072Z,981.91
2018-04-30T03:50:04.929Z,981.90
2018-04-30T03:51:11.304Z,981.93
2018-04-30T03:52:17.677Z,981.99
2018-04-30T03:53:24.029Z,981.95
2018-04-30T03:54:30.405Z,982.00
2018-04-30T03:55:36.739Z,981.99
2018-04-30T03:56:44.128Z,982.02
2018-04-30T03:57:49.459Z,981.99
2018-04-30T03:58:55.804Z,982.02
2018-04-30T04:00:02.164Z,982.04
2018-04-30T04:01:08.550Z,982.08
2018-04-30T04:02:14.887Z,982.07
2018-04-30T04:03:21.244Z,982.12
2018-04-30T04:04:27.593Z,982.09
2018-04-30T04:05:33.970Z,982.14
2018-04-30T04:06:40.644Z,982.12
2018-04-30T04:07:46.716Z,982.16
2018-04-30T04:08:53.044Z,982.09
2018-04-30T04:09:59.393Z,982.24
2018-04-30T04:11:05.785Z,982.29
2018-04-30T04:12:12.089Z,982.29
2018-04-30T04:13:18.440Z,982.42
2018-04-30T04:14:24.789Z,982.32
2018-04-30T04:15:31.157Z,982.34
2018-04-30T04:16:37.533Z,982.40
2018-04-30T04:17:43.357Z,982.57
2018-04-30T04:18:50.216Z,982.49
2018-04-30T04:19:56.543Z,982.55
2018-04-30T04:21:02.897Z,982.66
2018-04-30T04:22:09.274Z,982.66
2018-04-30T04:23:15.591Z,982.70
2018-04-30T04:24:21.945Z,982.65
2018-04-30T04:25:28.380Z,982.70
2018-04-30T04:26:34.658Z,982.74
2018-04-30T04:27:40.970Z,982.79
2018-04-30T04:28:47.320Z,982.73
2018-04-30T04:29:53.669Z,982.74
2018-04-30T04:31:00.012Z,982.69
2018-04-30T04:32:06.413Z,982.73
2018-04-30T04:33:12.679Z,982.71
2018-04-30T04:34:19.024Z,982.74
2018-04-30T04:35:24.873Z,982.74
2018-04-30T04:36:31.736Z,982.67
2018-04-30T04:37:38.053Z,982.69
2018-04-30T04:38:44.424Z,982.73
2018-04-30T04:39:50.745Z,982.71
2018-04-30T04:40:56.579Z,982.71
2018-04-30T04:42:03.447Z,982.72
2018-04-30T04:43:09.269Z,982.69
2018-04-30T04:44:16.117Z,982.65
2018-04-30T04:45:21.967Z,982.65
2018-04-30T04:46:28.829Z,982.65
2018-04-30T04:47:34.762Z,982.62
2018-04-30T04:48:41.492Z,982.74
2018-04-30T04:49:47.979Z,982.76
2018-04-30T04:50:55.179Z,982.83
2018-04-30T04:52:00.545Z,982.78
2018-04-30T04:53:06.872Z,982.80
2018-04-30T04:54:13.224Z,982.82
2018-04-30T04:55:19.552Z,982.93
2018-04-30T04:56:25.922Z,982.89
2018-04-30T04:57:32.264Z,982.86
2018-04-30T04:58:38.095Z,982.76
2018-04-30T04:59:45.023Z,982.90
2018-04-30T05:00:51.267Z,982.91
2018-04-30T05:01:57.639Z,982.95
2018-04-30T05:03:03.474Z,982.98
2018-04-30T05:04:09.809Z,982.96
2018-04-30T05:05:17.653Z,982.93
2018-04-30T05:06:23.004Z,982.93
2018-04-30T05:07:30.401Z,982.85
2018-04-30T05:08:35.682Z,982.90
2018-04-30T05:09:42.032Z,982.84
2018-04-30T05:10:48.447Z,982.91
2018-04-30T05:11:54.250Z,982.88
2018-04-30T05:13:01.077Z,982.85
2018-04-30T05:14:07.430Z,982.86
2018-04-30T05:15:13.768Z,982.95
2018-04-30T05:16:19.621Z,983.03
2018-04-30T05:17:26.481Z,982.99
2018-04-30T05:18:32.813Z,983.07
2018-04-30T05:19:39.153Z,983.20
2018-04-30T05:20:45.492Z,983.21
2018-04-30T05:21:51.860Z,983.08
2018-04-30T05:22:58.177Z,983.15
2018-04-30T05:24:04.028Z,983.20
2018-04-30T05:25:10.870Z,983.14
2018-04-30T05:26:17.237Z,983.16
2018-04-30T05:27:23.572Z,983.08
2018-04-30T05:28:29.909Z,983.23
2018-04-30T05:29:36.230Z,983.16
2018-04-30T05:30:42.075Z,983.14
2018-04-30T05:31:48.947Z,983.26
2018-04-30T05:32:55.257Z,983.26
2018-04-30T05:34:01.614Z,983.23
2018-04-30T05:35:07.938Z,983.25
2018-04-30T05:36:14.273Z,983.30
2018-04-30T05:37:20.684Z,983.45
2018-04-30T05:38:26.454Z,983.43
2018-04-30T05:39:33.289Z,983.43
2018-04-30T05:40:39.922Z,983.45
2018-04-30T05:41:45.493Z,983.37
2018-04-30T05:42:52.406Z,983.40
2018-04-30T05:43:58.643Z,983.44
2018-04-30T05:45:04.993Z,983.52
2018-04-30T05:46:11.361Z,983.54
2018-04-30T05:47:17.209Z,983.59
2018-04-30T05:48:24.019Z,983.61
2018-04-30T05:49:30.388Z,983.69
2018-04-30T05:50:36.697Z,983.78
2018-04-30T05:51:42.563Z,983.80
2018-04-30T05:52:49.386Z,983.80
2018-04-30T05:53:55.232Z,983.84
2018-04-30T05:55:02.089Z,983.86
2018-04-30T05:56:09.900Z,983.87
2018-04-30T05:57:14.800Z,983.88
2018-04-30T05:58:21.127Z,983.88
2018-04-30T05:59:27.483Z,983.86
2018-04-30T06:00:33.364Z,983.87
2018-04-30T06:01:40.174Z,983.82
2018-04-30T06:02:46.514Z,983.85
2018-04-30T06:03:52.833Z,983.79
2018-04-30T06:04:59.175Z,983.85
2018-04-30T06:06:05.024Z,983.78
2018-04-30T06:07:12.415Z,983.80
2018-04-30T06:08:17.709Z,983.72
2018-04-30T06:09:24.525Z,983.73
2018-04-30T06:10:30.880Z,983.74
2018-04-30T06:11:36.706Z,983.88
2018-04-30T06:12:43.059Z,983.97
2018-04-30T06:13:49.860Z,984.03
2018-04-30T06:14:56.188Z,984.06
2018-04-30T06:16:03.522Z,984.16
2018-04-30T06:17:08.375Z,984.17
2018-04-30T06:18:14.681Z,984.29
2018-04-30T06:19:21.513Z,984.39
2018-04-30T06:20:27.328Z,984.45
2018-04-30T06:21:34.152Z,984.47
2018-04-30T06:22:40.494Z,984.51
2018-04-30T06:23:46.810Z,984.47
2018-04-30T06:24:53.126Z,984.52
2018-04-30T06:25:59.454Z,984.49
2018-04-30T06:27:05.810Z,984.43
2018-04-30T06:28:11.642Z,984.46
2018-04-30T06:29:18.431Z,984.56
2018-04-30T06:30:24.764Z,984.50
2018-04-30T06:31:30.644Z,984.51
2018-04-30T06:32:37.420Z,984.52
2018-04-30T06:33:43.225Z,984.57
2018-04-30T06:34:49.540Z,984.50
2018-04-30T06:35:56.382Z,984.53
2018-04-30T06:37:02.681Z,984.47
2018-04-30T06:38:08.959Z,984.51
2018-04-30T06:39:15.278Z,984.53
2018-04-30T06:40:21.580Z,984.52
2018-04-30T06:41:27.906Z,984.52
2018-04-30T06:42:34.237Z,984.46
2018-04-30T06:43:40.515Z,984.54
2018-04-30T06:44:46.823Z,984.49
2018-04-30T06:45:53.132Z,984.57
2018-04-30T06:46:59.468Z,984.62
2018-04-30T06:48:05.755Z,984.62
2018-04-30T06:49:12.116Z,984.47
2018-04-30T06:50:18.405Z,984.54
2018-04-30T06:51:24.714Z,984.52
2018-04-30T06:52:31.046Z,984.43
2018-04-30T06:53:37.343Z,984.40
2018-04-30T06:54:43.668Z,984.41
2018-04-30T06:55:49.493Z,984.41
2018-04-30T06:56:56.417Z,984.42
2018-04-30T06:58:02.658Z,984.39
2018-04-30T06:59:08.964Z,984.34
2018-04-30T07:00:15.325Z,984.34
2018-04-30T07:01:21.163Z,984.34
2018-04-30T07:02:28.004Z,984.41
2018-04-30T07:03:33.839Z,984.34
2018-04-30T07:04:40.676Z,984.43
2018-04-30T07:05:46.525Z,984.52
2018-04-30T07:06:53.358Z,984.52
2018-04-30T07:07:59.722Z,984.51
2018-04-30T07:09:06.074Z,984.56
2018-04-30T07:10:12.383Z,984.58
2018-04-30T07:11:18.718Z,984.60
2018-04-30T07:12:25.087Z,984.70
2018-04-30T07:13:31.412Z,984.66
2018-04-30T07:14:37.775Z,984.75
2018-04-30T07:15:44.134Z,984.63
2018-04-30T07:16:49.997Z,984.60
2018-04-30T07:17:56.865Z,984.55
2018-04-30T07:19:03.211Z,984.59
2018-04-30T07:20:09.661Z,984.57
2018-04-30T07:21:15.451Z,984.62
2018-04-30T07:22:22.415Z,984.72
2018-04-30T07:23:28.692Z,984.87
2018-04-30T07:24:35.065Z,984.90
2018-04-30T07:25:41.433Z,984.94
2018-04-30T07:26:47.811Z,984.98
2018-04-30T07:27:54.289Z,984.99
2018-04-30T07:29:00.534Z,985.06
2018-04-30T07:30:06.892Z,985.00
2018-04-30T07:31:13.297Z,985.02
2018-04-30T07:32:19.658Z,985.07
2018-04-30T07:33:26.014Z,985.02
2018-04-30T07:34:32.386Z,985.04
2018-04-30T07:35:38.746Z,985.00
2018-04-30T07:36:44.616Z,985.05
2018-04-30T07:37:51.508Z,985.03
2018-04-30T07:38:57.862Z,984.98
2018-04-30T07:40:04.932Z,985.00
2018-04-30T07:41:10.626Z,984.99
2018-04-30T07:42:17.036Z,984.95
2018-04-30T07:43:22.891Z,984.92
2018-04-30T07:44:29.777Z,984.78
2018-04-30T07:45:36.181Z,984.81
2018-04-30T07:46:42.558Z,984.80
2018-04-30T07:47:48.968Z,984.78
2018-04-30T07:48:55.345Z,984.77
2018-04-30T07:50:01.753Z,984.81
2018-04-30T07:51:08.130Z,984.76
2018-04-30T07:52:14.578Z,984.76
2018-04-30T07:53:20.952Z,984.82
2018-04-30T07:54:26.870Z,984.81
2018-04-30T07:55:33.776Z,984.75
2018-04-30T07:56:40.166Z,984.80
2018-04-30T07:57:46.595Z,984.86
2018-04-30T07:58:52.492Z,984.82
2018-04-30T07:59:59.393Z,984.82
2018-04-30T08:01:05.822Z,984.77
2018-04-30T08:02:12.272Z,984.81
2018-04-30T08:03:19.640Z,984.82
2018-04-30T08:04:25.053Z,984.67
2018-04-30T08:05:30.999Z,984.66
2018-04-30T08:06:37.912Z,984.69
2018-04-30T08:07:44.432Z,984.61
2018-04-30T08:08:50.776Z,984.59
2018-04-30T08:09:57.208Z,984.62
2018-04-30T08:11:03.663Z,984.56
2018-04-30T08:12:10.138Z,984.55
2018-04-30T08:13:16.621Z,984.63
2018-04-30T08:14:23.114Z,984.65
2018-04-30T08:15:29.631Z,984.62
2018-04-30T08:16:35.602Z,984.65
2018-04-30T08:17:42.681Z,984.61
2018-04-30T08:18:48.604Z,984.73
2018-04-30T08:19:55.105Z,984.69
2018-04-30T08:21:01.584Z,984.70
2018-04-30T08:22:08.078Z,984.67
2018-04-30T08:23:15.088Z,984.70
2018-04-30T08:24:21.587Z,984.64
2018-04-30T08:25:28.083Z,984.66
2018-04-30T08:26:34.592Z,984.71
2018-04-30T08:27:41.123Z,984.71
2018-04-30T08:28:47.621Z,984.72
2018-04-30T08:29:54.180Z,984.75
2018-04-30T08:31:00.642Z,984.67
2018-04-30T08:32:07.160Z,984.78
2018-04-30T08:33:13.687Z,984.69
2018-04-30T08:34:19.691Z,984.97
2018-04-30T08:35:26.217Z,985.06
2018-04-30T08:36:33.243Z,985.11
2018-04-30T08:37:39.759Z,985.22
2018-04-30T08:38:46.261Z,985.28
2018-04-30T08:39:52.267Z,985.33
2018-04-30T08:40:59.253Z,985.21
2018-04-30T08:42:05.757Z,985.27
2018-04-30T08:43:12.289Z,985.22
2018-04-30T08:44:18.392Z,985.30
2018-04-30T08:45:25.279Z,985.23
2018-04-30T08:46:31.304Z,985.32
2018-04-30T08:47:38.431Z,985.20
2018-04-30T08:48:44.864Z,985.19
2018-04-30T08:49:50.907Z,985.19
2018-04-30T08:50:57.950Z,985.14
2018-04-30T08:52:04.525Z,985.15
2018-04-30T08:53:11.062Z,985.13
2018-04-30T08:54:17.574Z,985.18
2018-04-30T08:55:23.611Z,985.08
2018-04-30T08:56:30.639Z,985.17
2018-04-30T08:57:37.204Z,985.23
2018-04-30T08:58:43.711Z,985.16
2018-04-30T08:59:49.723Z,985.10
2018-04-30T09:00:57.746Z,985.19
2018-04-30T09:02:03.253Z,985.18
2018-04-30T09:03:09.809Z,985.22
2018-04-30T09:04:16.807Z,985.19
2018-04-30T09:05:22.690Z,985.14
2018-04-30T09:06:29.395Z,985.17
2018-04-30T09:07:35.971Z,985.09
2018-04-30T09:08:42.511Z,985.18
2018-04-30T09:09:49.069Z,985.14
2018-04-30T09:10:55.629Z,985.07
2018-04-30T09:12:01.679Z,985.20
2018-04-30T09:13:08.749Z,985.16
2018-04-30T09:14:15.261Z,985.17
2018-04-30T09:15:21.806Z,985.19
2018-04-30T09:16:28.332Z,985.21
2018-04-30T09:17:34.915Z,985.11
2018-04-30T09:18:41.424Z,985.23
2018-04-30T09:19:47.986Z,985.15
2018-04-30T09:20:54.503Z,985.15
2018-04-30T09:22:01.012Z,985.20
2018-04-30T09:23:07.595Z,985.13
2018-04-30T09:24:14.019Z,985.20
2018-04-30T09:25:20.484Z,985.14
2018-04-30T09:26:26.972Z,985.11
2018-04-30T09:27:33.456Z,985.16
2018-04-30T09:28:39.919Z,985.11
2018-04-30T09:29:47.368Z,985.13
2018-04-30T09:30:52.870Z,985.13
2018-04-30T09:31:59.373Z,985.02
2018-04-30T09:33:05.839Z,985.11
2018-04-30T09:34:12.420Z,985.12
2018-04-30T09:35:18.839Z,984.99
2018-04-30T09:36:25.377Z,985.08
2018-04-30T09:37:31.968Z,984.96
2018-04-30T09:38:38.490Z,985.02
2018-04-30T09:39:45.056Z,985.00
2018-04-30T09:40:51.614Z,985.11
2018-04-30T09:41:59.144Z,985.09
2018-04-30T09:43:04.733Z,985.12
2018-04-30T09:44:10.717Z,985.18
2018-04-30T09:45:17.745Z,985.23
2018-04-30T09:46:24.244Z,985.23
2018-04-30T09:47:30.771Z,985.17
2018-04-30T09:48:37.286Z,985.18
2018-04-30T09:49:43.786Z,985.13
2018-04-30T09:50:49.766Z,985.14
2018-04-30T09:51:56.774Z,985.22
2018-04-30T09:53:03.301Z,985.16
2018-04-30T09:54:09.807Z,985.21
2018-04-30T09:55:16.389Z,985.30
2018-04-30T09:56:22.856Z,985.16
2018-04-30T09:57:29.424Z,985.11
2018-04-30T09:58:35.999Z,985.05
2018-04-30T09:59:42.532Z,985.11
2018-04-30T10:00:49.581Z,985.10
2018-04-30T10:01:55.120Z,985.14
2018-04-30T10:03:02.212Z,985.18
2018-04-30T10:04:08.702Z,985.20
2018-04-30T10:05:15.250Z,985.07
2018-04-30T10:06:21.304Z,985.14
2018-04-30T10:07:27.851Z,984.96
2018-04-30T10:08:34.898Z,985.14
2018-04-30T10:09:41.410Z,985.17
2018-04-30T10:10:47.932Z,985.23
2018-04-30T10:11:54.499Z,985.06
2018-04-30T10:13:01.057Z,985.17
2018-04-30T10:14:07.599Z,985.10
2018-04-30T10:15:14.161Z,985.07
2018-04-30T10:16:20.717Z,984.97
2018-04-30T10:17:27.306Z,985.02
2018-04-30T10:18:33.893Z,985.02
2018-04-30T10:19:40.425Z,985.03
2018-04-30T10:20:46.996Z,985.19
2018-04-30T10:21:53.554Z,985.17
2018-04-30T10:23:00.134Z,985.17
2018-04-30T10:24:06.658Z,985.15
2018-04-30T10:25:13.216Z,985.14
2018-04-30T10:26:19.753Z,985.16
2018-04-30T10:27:26.390Z,985.18
2018-04-30T10:28:32.856Z,985.17
2018-04-30T10:29:39.357Z,985.21
2018-04-30T10:30:45.404Z,985.18
2018-04-30T10:31:52.431Z,985.25
2018-04-30T10:32:58.977Z,985.23
2018-04-30T10:34:05.686Z,985.25
2018-04-30T10:35:12.192Z,985.27
2018-04-30T10:36:18.876Z,985.26
2018-04-30T10:37:25.884Z,985.25
2018-04-30T10:38:31.825Z,985.29
2018-04-30T10:39:38.140Z,985.29
2018-04-30T10:40:44.669Z,985.21
2018-04-30T10:41:51.202Z,985.23
2018-04-30T10:42:57.738Z,985.22
2018-04-30T10:44:04.249Z,985.22
2018-04-30T10:45:10.271Z,985.24
2018-04-30T10:46:16.789Z,985.22
2018-04-30T10:47:23.804Z,985.26
2018-04-30T10:48:30.408Z,985.26
2018-04-30T10:49:36.812Z,985.28
2018-04-30T10:50:43.312Z,985.24
2018-04-30T10:51:49.829Z,985.26
2018-04-30T10:52:56.416Z,985.28
2018-04-30T10:54:02.822Z,985.27
2018-04-30T10:55:09.319Z,985.33
2018-04-30T10:56:15.331Z,985.25
2018-04-30T10:57:22.398Z,985.30
2018-04-30T10:58:28.849Z,985.22
2018-04-30T10:59:35.329Z,985.24
2018-04-30T11:00:41.843Z,985.29
2018-04-30T11:01:48.395Z,985.34
2018-04-30T11:02:55.350Z,985.25
2018-04-30T11:04:01.346Z,985.32
2018-04-30T11:05:07.848Z,985.28
2018-04-30T11:06:14.401Z,985.33
2018-04-30T11:07:20.939Z,985.34
2018-04-30T11:08:27.461Z,985.25
2018-04-30T11:09:33.440Z,985.19
2018-04-30T11:10:39.967Z,985.23
2018-04-30T11:11:47.003Z,985.24
2018-04-30T11:12:53.553Z,985.23
2018-04-30T11:14:00.076Z,985.17
2018-04-30T11:15:06.686Z,985.20
2018-04-30T11:16:13.188Z,985.20
2018-04-30T11:18:26.420Z,985.10
2018-04-30T11:19:32.420Z,985.05
2018-04-30T11:20:39.536Z,985.23
2018-04-30T11:21:45.702Z,985.20
2018-04-30T11:22:52.827Z,985.17
2018-04-30T11:23:59.464Z,985.07
2018-04-30T11:25:06.087Z,985.02
2018-04-30T11:26:12.231Z,985.00
2018-04-30T11:27:18.821Z,985.06
2018-04-30T11:28:25.905Z,985.09
2018-04-30T11:29:33.452Z,985.17
2018-04-30T11:30:39.046Z,985.19
2018-04-30T11:31:45.175Z,985.13
2018-04-30T11:32:52.393Z,985.04
2018-04-30T11:33:59.033Z,985.04
2018-04-30T11:35:05.608Z,985.06
2018-04-30T11:36:12.238Z,985.11
2018-04-30T11:37:18.366Z,985.16
2018-04-30T11:38:25.478Z,985.16
2018-04-30T11:39:32.089Z,985.14
2018-04-30T11:40:38.741Z,985.10
2018-04-30T11:41:44.773Z,985.18
2018-04-30T11:42:51.866Z,985.11
2018-04-30T11:43:58.495Z,985.06
2018-04-30T11:45:04.595Z,985.16
2018-04-30T11:46:11.718Z,985.02
2018-04-30T11:47:18.594Z,985.06
2018-04-30T11:48:25.189Z,985.12
2018-04-30T11:49:31.993Z,985.17
2018-04-30T11:50:38.925Z,984.95
2018-04-30T11:51:45.397Z,985.04
2018-04-30T11:52:52.924Z,985.06
2018-04-30T11:53:59.516Z,985.06
2018-04-30T11:55:06.519Z,985.13
2018-04-30T11:56:13.593Z,985.15
2018-04-30T11:57:20.635Z,985.09
2018-04-30T11:58:28.144Z,985.15
2018-04-30T11:59:34.625Z,985.19
2018-04-30T12:00:42.183Z,985.22
2018-04-30T12:01:49.257Z,985.07
2018-04-30T12:02:56.307Z,985.11
2018-04-30T12:04:02.869Z,985.09
2018-04-30T12:05:10.391Z,985.11
2018-04-30T12:06:17.435Z,984.92
2018-04-30T12:07:24.463Z,985.14
2018-04-30T12:08:31.464Z,985.20
2018-04-30T12:09:37.932Z,985.16
2018-04-30T12:10:45.479Z,985.07
2018-04-30T12:11:52.553Z,985.20
2018-04-30T12:12:59.147Z,985.21
2018-04-30T12:14:06.757Z,985.14
2018-04-30T12:15:13.798Z,985.22
2018-04-30T12:16:21.835Z,985.05
2018-04-30T12:17:27.931Z,985.14
2018-04-30T12:18:35.033Z,985.07
2018-04-30T12:19:41.548Z,985.12
2018-04-30T12:20:49.057Z,985.11
2018-04-30T12:21:56.073Z,985.20
2018-04-30T12:23:02.494Z,985.12
2018-04-30T12:24:09.999Z,985.22
2018-04-30T12:25:16.513Z,985.09
2018-04-30T12:26:23.578Z,985.17
2018-04-30T12:27:30.660Z,985.14
2018-04-30T12:28:37.794Z,985.08
2018-04-30T12:29:45.287Z,985.19
2018-04-30T12:30:51.841Z,985.06
2018-04-30T12:31:59.479Z,985.19
2018-04-30T12:33:07.127Z,985.02
2018-04-30T12:34:13.836Z,985.06
2018-04-30T12:35:21.003Z,985.23
2018-04-30T12:36:28.206Z,985.14
2018-04-30T12:37:35.403Z,985.14
2018-04-30T12:38:42.562Z,985.07
2018-04-30T12:39:49.140Z,985.02
2018-04-30T12:40:56.777Z,985.17
2018-04-30T12:42:03.389Z,985.05
2018-04-30T12:43:11.828Z,985.02
2018-04-30T12:44:18.301Z,985.47
2018-04-30T12:45:25.034Z,985.04
2018-04-30T12:46:32.812Z,985.13
2018-04-30T12:47:39.638Z,984.98
2018-04-30T12:48:47.008Z,984.96
2018-04-30T12:49:54.357Z,985.14
2018-04-30T12:51:01.764Z,985.18
2018-04-30T12:52:09.156Z,985.05
2018-04-30T12:53:16.581Z,985.00
2018-04-30T12:54:24.487Z,985.06
2018-04-30T12:55:31.945Z,984.94
2018-04-30T12:56:39.357Z,985.25
2018-04-30T12:57:46.814Z,984.98
2018-04-30T12:58:53.799Z,985.16
2018-04-30T13:00:01.730Z,984.90
2018-04-30T13:01:09.205Z,984.73
2018-04-30T13:02:17.646Z,984.96
2018-04-30T13:03:23.647Z,985.03
2018-04-30T13:04:31.560Z,985.06
2018-04-30T13:05:39.016Z,985.07
2018-04-30T13:06:46.441Z,985.00
2018-04-30T13:07:53.382Z,984.95
2018-04-30T13:09:01.321Z,985.05
2018-04-30T13:10:08.191Z,985.04
2018-04-30T13:11:16.069Z,985.03
2018-04-30T13:12:22.958Z,985.31
2018-04-30T13:13:30.842Z,985.22
2018-04-30T13:14:37.679Z,985.26
2018-04-30T13:15:45.531Z,985.08
2018-04-30T13:16:52.358Z,985.09
2018-04-30T13:18:00.162Z,985.32
2018-04-30T13:19:07.502Z,985.17
2018-04-30T13:20:14.756Z,985.31
2018-04-30T13:21:21.541Z,985.15
2018-04-30T13:22:29.320Z,985.14
2018-04-30T13:23:36.599Z,985.21
2018-04-30T13:24:43.340Z,985.25
2018-04-30T13:25:51.094Z,985.34
2018-04-30T13:26:58.388Z,985.36
2018-04-30T13:28:05.102Z,985.32
2018-04-30T13:29:12.361Z,985.23
2018-04-30T13:30:20.068Z,985.52
2018-04-30T13:31:26.794Z,985.34
2018-04-30T13:32:34.018Z,985.19
2018-04-30T13:33:41.756Z,985.23
2018-04-30T13:34:48.975Z,985.26
2018-04-30T13:35:55.676Z,985.19
2018-04-30T13:37:03.399Z,985.64
2018-04-30T13:38:10.122Z,985.26
2018-04-30T13:39:17.827Z,985.33
2018-04-30T13:40:26.120Z,985.57
2018-04-30T13:41:32.852Z,985.34
2018-04-30T13:42:39.468Z,985.31
2018-04-30T13:43:48.100Z,985.36
2018-04-30T13:44:53.461Z,985.36
2018-04-30T13:46:01.515Z,985.29
2018-04-30T13:47:09.425Z,985.38
2018-04-30T13:48:15.073Z,985.32
2018-04-30T13:49:22.826Z,985.35
2018-04-30T13:50:30.026Z,985.48
2018-04-30T13:51:37.253Z,985.59